createdAt,value
2018-08-03T03:01:11.003Z,4.50
2018-08-03T03:02:10.773Z,7.50
2018-08-03T03:03:12.663Z,7.40
2018-08-03T03:05:12.526Z,7.30
2018-08-03T03:06:15.640Z,7.20
2018-08-03T03:07:12.639Z,7.30
2018-08-03T03:08:12.895Z,7.60
2018-08-03T03:09:12.774Z,7.10
2018-08-03T03:10:13.172Z,7.30
2018-08-03T03:11:12.624Z,7.90
2018-08-03T03:12:11.401Z,7.30
2018-08-03T03:13:10.844Z,7.70
2018-08-03T03:14:11.176Z,7.80
2018-08-03T03:52:08.521Z,7.80
2018-08-03T04:03:54.831Z,7.80
2018-08-03T04:04:58.031Z,7.90
2018-08-03T04:58:42.458Z,8.10
2018-08-03T05:06:44.369Z,8.20
2018-08-03T05:07:36.223Z,7.90
2018-08-03T20:28:05.176Z,6.10
2018-08-03T20:29:46.569Z,6.00
2018-08-03T20:34:04.175Z,6.20
2018-08-03T20:36:22.126Z,6.40
2018-08-03T20:36:44.740Z,6.60
2018-08-03T20:37:22.842Z,6.30
2018-08-03T20:38:28.488Z,6.50
2018-08-03T20:39:22.615Z,6.40
2018-08-03T20:40:24.864Z,6.30
2018-08-03T20:42:21.309Z,6.40
2018-08-03T20:43:24.665Z,6.10
2018-08-03T20:44:26.683Z,6.30
2018-08-03T20:45:23.327Z,6.40
2018-08-03T20:46:20.794Z,6.40
2018-08-03T20:47:20.178Z,6.30
2018-08-03T20:48:20.337Z,6.40
2018-08-03T20:49:20.568Z,6.60
2018-08-03T20:50:20.590Z,6.60
2018-08-03T20:51:20.945Z,6.20
2018-08-03T20:52:20.639Z,6.70
2018-08-03T20:53:20.681Z,6.40
2018-08-03T20:54:21.208Z,6.70
2018-08-03T20:55:21.078Z,6.40
2018-08-03T20:56:23.248Z,6.10
2018-08-03T20:57:21.527Z,6.40
2018-08-03T20:58:23.369Z,6.60
2018-08-03T20:59:23.190Z,6.70
2018-08-03T21:00:22.005Z,6.60
2018-08-03T21:01:22.240Z,6.30
2018-08-03T21:02:22.355Z,6.80
2018-08-03T21:03:22.426Z,6.60
2018-08-03T21:04:23.211Z,6.70
2018-08-03T21:05:23.264Z,6.70
2018-08-03T21:06:23.293Z,6.40
2018-08-03T21:07:23.356Z,6.50
2018-08-03T21:08:23.816Z,7.30
2018-08-03T21:09:23.972Z,6.40
2018-08-03T21:10:24.059Z,6.10
2018-08-03T21:11:24.247Z,6.30
2018-08-03T21:12:24.401Z,6.60
2018-08-03T21:13:24.426Z,6.40
2018-08-03T21:14:25.937Z,6.60
2018-08-03T21:15:24.917Z,6.70
2018-08-03T21:16:25.063Z,6.60
2018-08-03T21:17:25.291Z,6.40
2018-08-03T21:18:25.248Z,6.90
2018-08-03T21:19:25.698Z,6.90
2018-08-03T21:20:25.764Z,6.90
2018-08-03T21:21:25.895Z,6.70
2018-08-03T21:22:26.323Z,7.00
2018-08-03T21:23:26.320Z,6.90
2018-08-03T21:24:26.692Z,7.10
2018-08-03T21:25:26.828Z,7.00
2018-08-03T21:26:26.936Z,6.90
2018-08-03T21:27:27.321Z,6.60
2018-08-03T21:28:27.365Z,6.80
2018-08-03T21:29:27.660Z,6.70
2018-08-03T21:30:27.684Z,6.70
2018-08-03T21:31:28.475Z,6.80
2018-08-03T21:32:28.420Z,6.70
2018-08-03T21:33:28.583Z,6.70
2018-08-03T21:34:28.512Z,6.90
2018-08-03T21:35:28.526Z,6.70
2018-08-03T21:36:29.375Z,6.70
2018-08-03T21:37:28.946Z,7.00
2018-08-03T21:38:28.978Z,6.80
2018-08-03T21:39:29.325Z,7.10
2018-08-03T21:40:29.320Z,6.50
2018-08-03T21:41:29.569Z,6.90
2018-08-03T21:42:29.832Z,6.50
2018-08-03T21:43:29.941Z,6.60
2018-08-03T21:44:30.361Z,6.70
2018-08-03T21:45:30.540Z,6.70
2018-08-03T21:46:30.723Z,6.90
2018-08-03T21:47:30.780Z,6.70
2018-08-03T21:48:30.777Z,6.70
2018-08-03T21:49:31.121Z,7.10
